createdAt,value
2018-02-17T00:01:40.931Z,3.30
2018-02-17T00:04:08.436Z,3.30
2018-02-17T00:06:36.174Z,3.40
2018-02-17T00:09:03.680Z,3.40
2018-02-17T00:11:31.335Z,3.30
2018-02-17T00:13:58.867Z,3.30
2018-02-17T00:16:26.572Z,3.30
2018-02-17T00:18:54.096Z,3.40
2018-02-17T00:21:21.601Z,3.40
2018-02-17T00:23:49.112Z,3.40
2018-02-17T00:26:17.505Z,3.30
2018-02-17T00:28:45.385Z,3.30
2018-02-17T00:31:13.150Z,3.30
2018-02-17T00:33:40.690Z,3.20
2018-02-17T00:36:08.207Z,3.30
2018-02-17T00:38:36.536Z,3.20
2018-02-17T00:41:04.206Z,3.20
2018-02-17T00:43:31.711Z,3.30
2018-02-17T00:45:59.439Z,3.20
2018-02-17T00:48:26.944Z,3.30
2018-02-17T00:50:54.599Z,3.20
2018-02-17T00:53:22.115Z,3.20
2018-02-17T00:55:49.895Z,3.20
2018-02-17T00:58:17.641Z,3.20
2018-02-17T01:00:45.412Z,3.10
2018-02-17T01:03:13.050Z,3.10
2018-02-17T01:05:40.546Z,3.10
2018-02-17T01:08:08.274Z,3.10
2018-02-17T01:10:35.893Z,3.10
2018-02-17T01:13:03.616Z,3.20
2018-02-17T01:15:31.380Z,3.10
2018-02-17T01:17:59.159Z,3.10
2018-02-17T01:20:26.668Z,3.00
2018-02-17T01:22:54.201Z,3.00
2018-02-17T01:25:21.698Z,3.00
2018-02-17T01:27:49.923Z,3.00
2018-02-17T01:30:17.707Z,3.10
2018-02-17T01:32:45.464Z,3.10
2018-02-17T01:35:13.215Z,3.10
2018-02-17T01:37:40.955Z,3.10
2018-02-17T01:40:08.742Z,3.10
2018-02-17T01:42:36.324Z,3.10
2018-02-17T01:45:03.837Z,3.10
2018-02-17T01:47:32.263Z,3.10
2018-02-17T01:49:59.794Z,3.10
2018-02-17T01:52:27.725Z,3.20
2018-02-17T01:54:55.308Z,3.20
2018-02-17T01:57:22.807Z,3.20
2018-02-17T01:59:50.320Z,3.20
2018-02-17T02:02:17.831Z,3.20
2018-02-17T02:04:45.396Z,3.20
2018-02-17T02:07:12.955Z,3.10
2018-02-17T02:09:40.472Z,3.10
2018-02-17T02:12:08.123Z,3.00
2018-02-17T02:14:35.624Z,3.00
2018-02-17T02:17:03.239Z,3.10
2018-02-17T02:19:30.775Z,3.10
2018-02-17T02:21:58.283Z,3.10
2018-02-17T02:24:26.029Z,3.10
2018-02-17T02:26:53.535Z,3.10
2018-02-17T02:29:21.184Z,3.00
2018-02-17T02:31:49.016Z,3.10
2018-02-17T02:34:16.503Z,3.10
2018-02-17T02:36:44.190Z,3.10
2018-02-17T02:39:11.862Z,3.10
2018-02-17T02:41:39.440Z,3.10
2018-02-17T02:44:06.935Z,3.20
2018-02-17T02:46:34.835Z,3.20
2018-02-17T02:49:02.442Z,3.10
2018-02-17T02:51:30.188Z,3.20
2018-02-17T02:53:57.692Z,3.10
2018-02-17T02:56:25.203Z,3.20
2018-02-17T02:58:52.702Z,3.20
2018-02-17T03:01:21.244Z,3.20
2018-02-17T03:03:48.744Z,3.20
2018-02-17T03:06:16.324Z,3.20
2018-02-17T03:08:43.892Z,3.20
2018-02-17T03:11:11.684Z,3.20
2018-02-17T03:13:39.221Z,3.20
2018-02-17T03:16:06.867Z,3.30
2018-02-17T03:18:34.387Z,3.30
2018-02-17T03:21:01.908Z,3.10
2018-02-17T03:23:29.425Z,3.00
2018-02-17T03:25:57.714Z,2.90
2018-02-17T03:28:25.216Z,2.90
2018-02-17T03:30:52.885Z,2.90
2018-02-17T03:33:20.390Z,3.00
2018-02-17T03:35:47.899Z,2.90
2018-02-17T03:38:15.627Z,3.00
2018-02-17T03:40:43.123Z,3.00
2018-02-17T03:43:10.628Z,3.00
2018-02-17T03:45:38.124Z,3.00
2018-02-17T03:48:05.636Z,3.00
2018-02-17T03:50:33.439Z,2.90
2018-02-17T03:53:01.223Z,2.90
2018-02-17T03:55:28.721Z,2.90
2018-02-17T03:57:56.282Z,3.00
2018-02-17T04:00:24.535Z,3.10
2018-02-17T04:02:52.057Z,3.00
2018-02-17T04:05:19.688Z,3.10
2018-02-17T04:07:47.919Z,3.10
2018-02-17T04:10:15.510Z,3.10
2018-02-17T04:12:43.008Z,3.10
2018-02-17T04:15:10.508Z,3.00
2018-02-17T04:17:38.284Z,3.00
2018-02-17T04:20:05.795Z,3.00
2018-02-17T04:22:33.448Z,3.00
2018-02-17T04:25:00.944Z,3.00
2018-02-17T04:27:28.995Z,3.10
2018-02-17T04:29:56.736Z,3.00
2018-02-17T04:32:24.243Z,3.00
2018-02-17T04:34:51.956Z,3.00
2018-02-17T04:37:19.564Z,3.00
2018-02-17T04:39:50.255Z,3.10
2018-02-17T04:42:26.211Z,3.10
2018-02-17T04:44:55.106Z,3.10
2018-02-17T04:47:24.757Z,3.10
2018-02-17T04:49:55.047Z,3.10
2018-02-17T04:55:40.241Z,3.10
2018-02-17T04:58:09.551Z,3.20
2018-02-17T05:00:39.229Z,3.10
2018-02-17T05:03:09.703Z,3.10
2018-02-17T05:05:52.878Z,3.20
2018-02-17T05:08:20.955Z,3.00
2018-02-17T05:10:48.460Z,3.20
2018-02-17T05:13:15.967Z,3.20
2018-02-17T05:16:02.294Z,3.20
2018-02-17T05:18:36.304Z,3.20
2018-02-17T05:21:15.527Z,3.20
2018-02-17T05:23:47.451Z,2.90
2018-02-17T05:26:15.519Z,3.00
2018-02-17T05:28:46.611Z,3.00
2018-02-17T05:31:17.427Z,3.00
2018-02-17T05:33:45.041Z,3.00
2018-02-17T05:36:18.617Z,3.00
2018-02-17T05:38:46.119Z,3.10
2018-02-17T05:41:34.508Z,3.00
2018-02-17T05:44:02.014Z,3.10
2018-02-17T05:46:29.647Z,3.10
2018-02-17T05:48:57.163Z,3.10
2018-02-17T05:51:24.677Z,3.10
2018-02-17T05:53:52.167Z,3.10
2018-02-17T05:56:20.119Z,3.10
2018-02-17T05:58:47.619Z,3.10
2018-02-17T06:01:15.136Z,3.10
2018-02-17T06:03:43.152Z,3.10
2018-02-17T06:06:10.899Z,3.20
2018-02-17T06:08:38.719Z,3.20
2018-02-17T06:11:07.044Z,3.20
2018-02-17T06:13:34.549Z,3.20
2018-02-17T06:16:02.256Z,3.20
2018-02-17T06:18:29.739Z,3.20
2018-02-17T06:20:57.448Z,3.20
2018-02-17T06:23:24.948Z,3.20
2018-02-17T06:25:52.653Z,3.20
2018-02-17T06:28:20.911Z,3.20
2018-02-17T06:30:48.399Z,3.20
2018-02-17T06:33:15.955Z,3.30
2018-02-17T06:35:43.558Z,3.30
2018-02-17T06:38:11.303Z,3.30
2018-02-17T06:40:38.812Z,3.20
2018-02-17T06:43:06.320Z,3.20
2018-02-17T06:45:34.749Z,3.30
2018-02-17T06:48:02.256Z,3.30
2018-02-17T06:50:29.987Z,3.30
2018-02-17T06:52:57.564Z,3.40
2018-02-17T06:55:25.905Z,3.40
2018-02-17T06:57:53.571Z,3.40
2018-02-17T07:00:21.364Z,3.40
2018-02-17T07:02:49.783Z,3.50
2018-02-17T07:05:17.287Z,3.40
2018-02-17T07:07:44.790Z,3.70
2018-02-17T07:10:13.068Z,4.00
2018-02-17T07:12:40.588Z,3.90
2018-02-17T07:15:08.275Z,3.90
2018-02-17T07:17:35.783Z,3.80
2018-02-17T07:20:03.464Z,3.70
2018-02-17T07:22:30.976Z,3.70
2018-02-17T07:24:58.487Z,3.70
2018-02-17T07:27:26.097Z,3.60
2018-02-17T07:29:53.619Z,3.60
2018-02-17T07:32:21.355Z,3.70
2018-02-17T07:34:49.130Z,3.70
2018-02-17T07:37:16.650Z,3.70
2018-02-17T07:39:44.351Z,3.60
2018-02-17T07:42:11.862Z,3.70
2018-02-17T07:44:40.583Z,3.70
2018-02-17T07:47:08.423Z,3.80
2018-02-17T07:49:35.923Z,3.80
2018-02-17T07:52:03.467Z,3.90
2018-02-17T07:54:30.981Z,3.90
2018-02-17T07:56:58.478Z,3.90
2018-02-17T07:59:26.143Z,4.00
2018-02-17T08:01:53.904Z,4.00
2018-02-17T08:04:22.310Z,4.10
2018-02-17T08:06:49.815Z,4.20
2018-02-17T08:09:17.356Z,4.20
2018-02-17T08:11:44.971Z,4.20
2018-02-17T08:14:12.492Z,4.20
2018-02-17T08:16:40.259Z,4.30
2018-02-17T08:19:07.954Z,4.30
2018-02-17T08:21:35.455Z,4.40
2018-02-17T08:24:02.951Z,4.40
2018-02-17T08:26:30.469Z,4.60
2018-02-17T08:28:58.995Z,4.60
2018-02-17T08:31:26.508Z,4.60
2018-02-17T08:33:54.011Z,4.70
2018-02-17T08:36:21.682Z,4.80
2018-02-17T08:38:49.305Z,4.80
2018-02-17T08:41:16.891Z,4.80
2018-02-17T08:43:44.410Z,4.80
2018-02-17T08:46:11.911Z,4.80
2018-02-17T08:48:39.403Z,4.80
2018-02-17T08:51:07.670Z,4.80
2018-02-17T08:53:35.184Z,4.80
2018-02-17T08:56:03.487Z,4.90
2018-02-17T08:58:31.124Z,4.90
2018-02-17T09:00:58.632Z,4.90
2018-02-17T09:03:26.171Z,5.00
2018-02-17T09:05:53.916Z,5.00
2018-02-17T09:08:21.449Z,5.00
2018-02-17T09:10:49.009Z,5.10
2018-02-17T09:13:16.608Z,5.00
2018-02-17T09:15:44.410Z,5.00
2018-02-17T09:18:12.094Z,5.10
2018-02-17T09:20:39.914Z,5.20
2018-02-17T09:23:07.444Z,5.20
2018-02-17T09:25:35.094Z,5.30
2018-02-17T09:28:02.867Z,5.20
2018-02-17T09:30:30.367Z,5.20
2018-02-17T09:32:58.069Z,5.30
2018-02-17T09:35:25.880Z,5.30
2018-02-17T09:37:53.370Z,5.30
2018-02-17T09:40:21.560Z,5.30
2018-02-17T09:42:49.060Z,5.40
2018-02-17T09:45:16.583Z,5.30
2018-02-17T09:47:44.082Z,5.20
2018-02-17T09:50:12.820Z,5.40
2018-02-17T09:52:40.540Z,5.40
2018-02-17T09:55:08.077Z,5.50
2018-02-17T09:57:35.597Z,5.50
2018-02-17T10:00:03.209Z,5.50
2018-02-17T10:02:30.715Z,5.50
2018-02-17T10:04:58.409Z,5.50
2018-02-17T10:07:26.168Z,5.60
2018-02-17T10:09:55.034Z,5.60
2018-02-17T10:12:22.542Z,5.40
2018-02-17T10:14:50.070Z,5.50
2018-02-17T10:17:17.606Z,5.30
2018-02-17T10:19:45.100Z,5.30
2018-02-17T10:22:12.752Z,5.40
2018-02-17T10:24:40.516Z,5.50
2018-02-17T10:27:08.119Z,5.30
2018-02-17T10:29:36.673Z,5.50
2018-02-17T10:32:04.175Z,5.40
2018-02-17T10:34:31.679Z,5.60
2018-02-17T10:36:59.325Z,5.60
2018-02-17T10:39:27.088Z,5.70
2018-02-17T10:41:54.614Z,5.80
2018-02-17T10:44:22.317Z,5.90
2018-02-17T10:46:49.811Z,5.80
2018-02-17T10:49:17.365Z,5.80
2018-02-17T10:51:45.959Z,5.70
2018-02-17T10:54:13.469Z,5.70
2018-02-17T10:56:40.979Z,5.80
2018-02-17T10:59:09.251Z,5.90
2018-02-17T11:01:36.751Z,5.90
2018-02-17T11:04:04.424Z,6.10
2018-02-17T11:06:32.192Z,6.20
2018-02-17T11:08:59.968Z,6.20
2018-02-17T11:11:27.470Z,6.20
2018-02-17T11:13:55.181Z,6.20
2018-02-17T11:16:22.676Z,6.30
2018-02-17T11:18:50.191Z,6.20
2018-02-17T11:21:17.741Z,6.00
2018-02-17T11:23:46.026Z,6.10
2018-02-17T11:26:13.692Z,6.10
2018-02-17T11:28:41.212Z,5.90
2018-02-17T11:31:08.729Z,6.10
2018-02-17T11:33:36.980Z,6.30
2018-02-17T11:36:04.488Z,6.30
2018-02-17T11:38:31.995Z,6.20
2018-02-17T11:40:59.620Z,6.30
2018-02-17T11:43:27.411Z,6.40
2018-02-17T11:45:54.911Z,6.50
2018-02-17T11:48:22.933Z,6.50
2018-02-17T11:50:50.445Z,6.40
2018-02-17T11:53:18.470Z,6.40
2018-02-17T11:55:45.960Z,6.50
2018-02-17T11:58:13.552Z,6.30
2018-02-17T12:00:41.101Z,6.30
2018-02-17T12:03:09.404Z,6.00
2018-02-17T12:05:37.051Z,6.00
2018-02-17T12:08:04.596Z,5.90
2018-02-17T12:10:32.908Z,6.10
2018-02-17T12:13:00.461Z,6.10
2018-02-17T12:15:28.119Z,6.20
2018-02-17T12:17:55.845Z,6.20
2018-02-17T12:20:23.618Z,6.30
2018-02-17T12:22:51.433Z,6.30
2018-02-17T12:25:19.143Z,6.20
2018-02-17T12:27:46.898Z,6.10
2018-02-17T12:30:14.503Z,6.10
2018-02-17T12:32:42.285Z,6.20
2018-02-17T12:35:09.813Z,6.30
2018-02-17T12:37:37.323Z,6.30
2018-02-17T12:40:04.903Z,6.30
2018-02-17T12:42:33.203Z,6.40
2018-02-17T12:45:00.917Z,6.40
2018-02-17T12:47:28.444Z,6.40
2018-02-17T12:49:56.028Z,6.30
2018-02-17T12:52:23.904Z,6.30
2018-02-17T12:54:51.460Z,6.30
2018-02-17T12:57:19.016Z,6.30
2018-02-17T12:59:46.538Z,6.40
2018-02-17T13:02:15.044Z,6.40
2018-02-17T13:04:42.577Z,6.50
2018-02-17T13:07:10.173Z,6.30
2018-02-17T13:09:37.735Z,6.30
2018-02-17T13:12:05.447Z,6.30
2018-02-17T13:14:32.978Z,6.30
2018-02-17T13:17:01.280Z,6.30
2018-02-17T13:19:28.820Z,6.30
2018-02-17T13:21:56.410Z,6.30
2018-02-17T13:24:23.995Z,6.30
2018-02-17T13:26:51.538Z,6.30
2018-02-17T13:29:19.143Z,6.30
2018-02-17T13:31:46.662Z,6.30
2018-02-17T13:34:14.705Z,6.40
2018-02-17T13:36:42.388Z,6.40
2018-02-17T13:39:10.152Z,6.50
2018-02-17T13:41:37.916Z,6.40
2018-02-17T13:44:06.367Z,6.20
2018-02-17T13:46:34.292Z,6.20
2018-02-17T13:49:01.999Z,6.10
2018-02-17T13:51:29.591Z,6.10
2018-02-17T13:53:57.152Z,6.10
2018-02-17T13:56:25.379Z,6.20
2018-02-17T13:58:52.899Z,6.30
2018-02-17T14:01:21.176Z,6.40
2018-02-17T14:03:48.749Z,6.20
2018-02-17T14:06:19.312Z,6.10
2018-02-17T14:08:46.984Z,6.20
2018-02-17T14:11:14.510Z,6.20
2018-02-17T14:13:42.126Z,6.20
2018-02-17T14:16:09.718Z,5.90
2018-02-17T14:18:37.532Z,6.10
2018-02-17T14:21:05.941Z,6.10
2018-02-17T14:23:33.666Z,6.20
2018-02-17T14:26:01.170Z,6.30
2018-02-17T14:28:28.751Z,6.40
2018-02-17T14:30:56.331Z,6.30
2018-02-17T14:33:23.889Z,6.40
2018-02-17T14:35:51.412Z,6.20
2018-02-17T14:38:19.049Z,6.20
2018-02-17T14:40:46.728Z,6.20
2018-02-17T14:43:14.304Z,6.20
2018-02-17T14:45:42.884Z,6.10
2018-02-17T14:48:10.491Z,6.00
2018-02-17T14:50:38.071Z,6.10
2018-02-17T14:53:05.823Z,5.90
2018-02-17T14:55:33.369Z,5.80
2018-02-17T14:58:00.840Z,5.90
2018-02-17T15:00:28.491Z,5.70
2018-02-17T15:02:56.264Z,5.90
2018-02-17T15:05:24.615Z,5.80
2018-02-17T15:07:52.111Z,5.80
2018-02-17T15:10:19.823Z,5.90
2018-02-17T15:12:47.371Z,5.80
2018-02-17T15:15:15.050Z,5.70
2018-02-17T15:17:42.553Z,5.80
2018-02-17T15:20:11.656Z,5.70
2018-02-17T15:22:39.210Z,5.70
2018-02-17T15:25:06.756Z,5.80
2018-02-17T15:27:34.253Z,5.80
2018-02-17T15:30:01.766Z,5.80
2018-02-17T15:32:29.428Z,5.80
2018-02-17T15:34:56.937Z,5.70
2018-02-17T15:37:24.815Z,5.70
2018-02-17T15:39:53.092Z,5.50
2018-02-17T15:42:21.424Z,5.50
2018-02-17T15:44:48.966Z,5.50
2018-02-17T15:47:16.511Z,5.50
2018-02-17T15:49:44.035Z,5.50
2018-02-17T15:52:11.520Z,5.60
2018-02-17T15:54:39.307Z,5.30
2018-02-17T15:57:06.797Z,5.40
2018-02-17T15:59:34.302Z,5.50
2018-02-17T16:02:01.835Z,5.50
2018-02-17T16:04:29.448Z,5.20
2018-02-17T16:06:57.199Z,5.20
2018-02-17T16:09:24.709Z,5.30
2018-02-17T16:11:52.379Z,5.30
2018-02-17T16:14:20.183Z,5.40
2018-02-17T16:16:47.711Z,5.50
2018-02-17T16:19:16.013Z,5.70
2018-02-17T16:21:43.519Z,5.70
2018-02-17T16:24:11.012Z,5.80
2018-02-17T16:26:38.562Z,5.70
2018-02-17T16:29:06.171Z,5.70
2018-02-17T16:31:33.705Z,5.70
2018-02-17T16:34:01.239Z,5.60
2018-02-17T16:36:28.824Z,5.60
2018-02-17T16:38:56.332Z,5.70
2018-02-17T16:41:23.909Z,5.70
2018-02-17T16:43:51.500Z,5.70
2018-02-17T16:46:19.101Z,5.80
2018-02-17T16:48:47.382Z,5.70
2018-02-17T16:51:15.061Z,5.70
2018-02-17T16:53:43.324Z,5.50
2018-02-17T16:56:11.611Z,5.60
2018-02-17T16:58:39.740Z,5.60
2018-02-17T17:01:07.388Z,5.50
2018-02-17T17:03:35.307Z,5.40
2018-02-17T17:06:03.564Z,5.40
2018-02-17T17:08:31.259Z,5.40
2018-02-17T17:10:58.781Z,6.20
2018-02-17T17:13:26.316Z,7.60
2018-02-17T17:15:53.845Z,7.90
2018-02-17T17:18:21.408Z,8.50
2018-02-17T17:20:49.027Z,7.50
2018-02-17T17:23:17.565Z,7.10
2018-02-17T17:25:45.067Z,7.10
2018-02-17T17:28:12.826Z,6.90
2018-02-17T17:30:40.508Z,6.80
2018-02-17T17:33:08.655Z,6.70
2018-02-17T17:35:36.164Z,6.50
2018-02-17T17:38:03.687Z,6.40
2018-02-17T17:40:31.208Z,6.20
2018-02-17T17:42:58.817Z,6.00
2018-02-17T17:45:26.307Z,6.00
2018-02-17T17:47:53.990Z,5.70
2018-02-17T17:50:21.505Z,5.60
2018-02-17T17:52:49.024Z,5.50
2018-02-17T17:55:17.347Z,5.50
2018-02-17T17:57:44.979Z,5.50
2018-02-17T18:00:12.492Z,5.30
2018-02-17T18:02:40.241Z,5.40
2018-02-17T18:05:07.757Z,5.50
2018-02-17T18:07:35.894Z,5.40
2018-02-17T18:10:04.463Z,5.50
2018-02-17T18:12:31.971Z,5.40
2018-02-17T18:14:59.480Z,5.40
2018-02-17T18:17:27.100Z,5.50
2018-02-17T18:19:54.624Z,5.50
2018-02-17T18:22:22.213Z,5.30
2018-02-17T18:24:49.715Z,5.30
2018-02-17T18:27:17.277Z,5.20
2018-02-17T18:29:44.785Z,5.30
2018-02-17T18:32:12.358Z,5.30
2018-02-17T18:34:39.956Z,5.40
2018-02-17T18:37:07.712Z,5.30
2018-02-17T18:39:35.464Z,5.30
2018-02-17T18:42:03.005Z,5.20
2018-02-17T18:44:30.508Z,5.10
2018-02-17T18:46:58.015Z,5.00
2018-02-17T18:49:25.570Z,4.90
2018-02-17T18:51:53.369Z,4.90
2018-02-17T18:54:20.868Z,4.90
2018-02-17T18:56:48.519Z,4.80
2018-02-17T18:59:16.937Z,4.80
2018-02-17T19:01:44.432Z,4.80
2018-02-17T19:04:12.193Z,4.70
2018-02-17T19:06:39.695Z,4.70
2018-02-17T19:09:07.401Z,4.60
2018-02-17T19:11:34.908Z,4.60
2018-02-17T19:14:02.467Z,4.60
2018-02-17T19:16:30.991Z,4.50
2018-02-17T19:18:58.635Z,4.50
2018-02-17T19:21:26.238Z,4.40
2018-02-17T19:23:53.740Z,4.40
2018-02-17T19:26:21.275Z,4.40
2018-02-17T19:28:48.895Z,4.30
2018-02-17T19:31:16.658Z,4.20
2018-02-17T19:33:44.152Z,4.30
2018-02-17T19:36:11.855Z,4.30
2018-02-17T19:38:39.708Z,4.20
2018-02-17T19:41:07.383Z,4.20
2018-02-17T19:43:35.169Z,4.20
2018-02-17T19:46:03.027Z,4.10
2018-02-17T19:48:30.655Z,4.00
2018-02-17T19:50:58.163Z,4.00
2018-02-17T19:53:25.830Z,3.90
2018-02-17T19:55:53.324Z,3.90
2018-02-17T19:58:20.825Z,3.80
2018-02-17T20:00:48.344Z,3.80
2018-02-17T20:03:16.264Z,3.70
2018-02-17T20:05:44.243Z,3.70
2018-02-17T20:08:11.888Z,3.60
2018-02-17T20:10:39.393Z,3.60
2018-02-17T20:13:07.117Z,3.70
2018-02-17T20:15:34.744Z,3.70
2018-02-17T20:18:02.258Z,3.60
2018-02-17T20:20:29.799Z,3.50
2018-02-17T20:22:57.300Z,3.60
2018-02-17T20:25:24.801Z,3.50
2018-02-17T20:27:52.313Z,3.60
2018-02-17T20:30:19.820Z,3.60
2018-02-17T20:32:47.376Z,3.60
2018-02-17T20:35:15.235Z,3.50
2018-02-17T20:37:42.905Z,3.50
2018-02-17T20:40:10.389Z,3.70
2018-02-17T20:42:38.095Z,3.70
2018-02-17T20:45:05.602Z,3.70
2018-02-17T20:47:34.643Z,3.80
2018-02-17T20:50:02.169Z,3.80
2018-02-17T20:52:30.470Z,3.80
2018-02-17T20:54:57.976Z,3.80
2018-02-17T20:57:25.495Z,3.90
2018-02-17T20:59:53.472Z,3.90
2018-02-17T21:02:21.149Z,3.80
2018-02-17T21:04:48.895Z,3.90
2018-02-17T21:07:16.391Z,3.90
2018-02-17T21:09:43.902Z,4.00
2018-02-17T21:12:11.406Z,4.00
2018-02-17T21:14:38.920Z,4.00
2018-02-17T21:17:07.242Z,4.00
2018-02-17T21:19:34.735Z,4.00
2018-02-17T21:22:02.234Z,4.00
2018-02-17T21:24:29.732Z,4.00
2018-02-17T21:26:57.235Z,4.10
2018-02-17T21:29:24.766Z,4.10
2018-02-17T21:31:53.028Z,4.10
2018-02-17T21:34:21.305Z,4.00
2018-02-17T21:36:49.592Z,4.10
2018-02-17T21:39:17.920Z,4.10
2018-02-17T21:41:45.444Z,4.10
2018-02-17T21:44:13.130Z,4.30
2018-02-17T21:46:40.643Z,4.30
2018-02-17T21:49:08.156Z,4.30
2018-02-17T21:51:35.654Z,4.30
2018-02-17T21:54:03.929Z,4.20
2018-02-17T21:56:32.232Z,4.20
2018-02-17T21:58:59.788Z,4.20
2018-02-17T22:01:27.280Z,4.20
2018-02-17T22:03:54.929Z,4.30
2018-02-17T22:06:22.453Z,4.20
2018-02-17T22:08:50.141Z,4.20
2018-02-17T22:11:17.638Z,4.30
2018-02-17T22:13:45.163Z,4.20
2018-02-17T22:16:12.835Z,4.30
2018-02-17T22:18:41.217Z,4.30
2018-02-17T22:21:08.728Z,4.30
2018-02-17T22:23:36.420Z,4.30
2018-02-17T22:26:03.933Z,4.20
2018-02-17T22:28:31.839Z,4.30
2018-02-17T22:30:59.411Z,4.30
2018-02-17T22:33:26.919Z,4.30
2018-02-17T22:35:54.637Z,4.30
2018-02-17T22:38:22.152Z,4.40
2018-02-17T22:40:50.171Z,4.40
2018-02-17T22:43:17.693Z,4.30
2018-02-17T22:45:45.356Z,4.30
2018-02-17T22:48:13.387Z,4.30
2018-02-17T22:50:41.312Z,4.30
2018-02-17T22:53:08.808Z,4.20
2018-02-17T22:55:37.098Z,4.20
2018-02-17T22:58:04.828Z,4.10
2018-02-17T23:00:32.985Z,4.10
2018-02-17T23:03:00.493Z,4.00
2018-02-17T23:05:28.744Z,4.10
2018-02-17T23:07:56.263Z,4.10
2018-02-17T23:10:23.769Z,4.10
2018-02-17T23:12:51.287Z,4.20
2018-02-17T23:15:18.792Z,4.20
2018-02-17T23:17:46.612Z,4.20
2018-02-17T23:20:14.348Z,4.20
2018-02-17T23:22:41.856Z,4.20
2018-02-17T23:25:09.363Z,4.30
2018-02-17T23:27:36.860Z,4.30
2018-02-17T23:30:04.411Z,4.20
2018-02-17T23:32:31.967Z,4.20
2018-02-17T23:34:59.730Z,4.20
2018-02-17T23:37:27.280Z,4.20
2018-02-17T23:39:54.776Z,4.20
2018-02-17T23:42:23.111Z,4.20
2018-02-17T23:44:50.799Z,4.20
2018-02-17T23:47:18.315Z,4.30
2018-02-17T23:49:46.024Z,4.30
2018-02-17T23:52:13.536Z,4.30
2018-02-17T23:54:41.074Z,4.30
2018-02-17T23:57:08.571Z,4.30
2018-02-17T23:59:36.078Z,4.30
